Time;durP1;ratioP1;P1;durP2;ratioP2;P2;SDS_P1;SDS_P2;PMS_P1;PMS_P2;Temp;Humidity;BMP_temperature;BMP_pressure;BME280_temperature;BME280_humidity;BME280_pressure;Samples;Min_cycle;Max_cycle;Signal;HPM_P1;HPM_P2
2022/06/23 00:00:24;;;;;;;3.88;3.58;;;21.50;98.60;;;;;;4972736;28;20230;-79
2022/06/23 00:02:51;;;;;;;6.60;3.85;;;21.40;98.60;;;;;;4972653;28;20650;-79
2022/06/23 00:05:24;;;;;;;6.93;3.92;;;21.40;98.70;;;;;;4972787;28;20237;-79
2022/06/23 00:07:54;;;;;;;3.95;3.55;;;21.40;98.70;;;;;;4973191;28;20646;-78
2022/06/23 00:10:23;;;;;;;6.18;3.63;;;21.40;98.90;;;;;;4973007;28;20203;-79
2022/06/23 00:12:50;;;;;;;4.05;3.65;;;21.40;98.80;;;;;;4972174;28;21046;-78
2022/06/23 00:15:28;;;;;;;4.22;3.67;;;21.40;98.90;;;;;;4973304;28;20211;-78
2022/06/23 00:17:59;;;;;;;5.38;4.07;;;21.40;98.80;;;;;;4972568;28;20207;-79
2022/06/23 00:20:31;;;;;;;6.07;4.00;;;21.30;99.00;;;;;;4953122;29;20207;-79
2022/06/23 00:23:04;;;;;;;5.82;3.88;;;21.30;99.10;;;;;;4968005;28;20599;-78
2022/06/23 00:25:40;;;;;;;5.50;4.22;;;21.20;98.90;;;;;;4972584;28;20199;-79
2022/06/23 00:28:12;;;;;;;4.22;3.83;;;21.30;98.90;;;;;;4972416;28;20206;-78
2022/06/23 00:30:41;;;;;;;8.65;4.15;;;21.20;99.10;;;;;;4972350;28;20202;-76
2022/06/23 00:33:16;;;;;;;4.85;3.85;;;21.20;99.10;;;;;;4971650;28;20222;-75
2022/06/23 00:35:44;;;;;;;5.25;3.80;;;21.20;99.20;;;;;;4972021;28;20398;-76
2022/06/23 00:38:20;;;;;;;6.75;3.92;;;21.20;99.10;;;;;;4972328;28;20207;-74
2022/06/23 00:40:48;;;;;;;3.92;3.63;;;21.10;99.20;;;;;;4971334;28;20246;-75
2022/06/23 00:43:14;;;;;;;4.77;3.83;;;21.10;99.40;;;;;;4971383;28;20676;-74
2022/06/23 00:45:49;;;;;;;6.45;3.85;;;21.10;99.40;;;;;;4971373;28;20576;-77
2022/06/23 00:48:22;;;;;;;7.47;3.63;;;21.00;99.40;;;;;;4971878;28;20214;-76
2022/06/23 00:50:56;;;;;;;4.80;3.88;;;21.00;99.60;;;;;;4971503;28;20277;-75
2022/06/23 00:53:29;;;;;;;5.65;3.88;;;21.00;99.50;;;;;;4971557;28;20206;-75
2022/06/23 00:56:09;;;;;;;5.60;4.00;;;20.90;99.60;;;;;;4971781;28;20243;-77
2022/06/23 00:58:43;;;;;;;6.07;4.00;;;20.90;99.70;;;;;;4970392;28;20289;-76
2022/06/23 01:01:15;;;;;;;4.47;3.72;;;20.90;99.80;;;;;;4971094;28;20214;-76
2022/06/23 01:03:50;;;;;;;5.03;3.70;;;21.00;99.80;;;;;;4970722;28;20195;-76
2022/06/23 01:06:24;;;;;;;7.17;4.60;;;20.90;99.80;;;;;;4971141;28;20202;-76
2022/06/23 01:08:56;;;;;;;7.68;4.00;;;20.90;99.90;;;;;;4971238;28;20202;-75
2022/06/23 01:11:30;;;;;;;6.70;3.80;;;20.80;99.90;;;;;;4970818;28;20242;-77
2022/06/23 01:14:06;;;;;;;4.70;3.90;;;20.80;99.90;;;;;;4970989;28;20291;-76
2022/06/23 01:16:41;;;;;;;4.88;3.80;;;20.80;99.90;;;;;;4971184;28;20202;-76
2022/06/23 01:19:24;;;;;;;4.80;3.77;;;20.70;99.90;;;;;;4970729;28;20206;-77
2022/06/23 01:21:57;;;;;;;4.23;3.63;;;20.60;99.90;;;;;;4971023;28;20203;-76
2022/06/23 01:24:33;;;;;;;7.13;4.10;;;20.60;99.90;;;;;;4970558;28;20658;-76
2022/06/23 01:27:19;;;;;;;3.93;3.60;;;20.60;99.90;;;;;;4970862;28;20223;-76
2022/06/23 01:29:51;;;;;;;4.43;3.92;;;20.60;99.90;;;;;;4970869;28;20199;-76
2022/06/23 01:32:22;;;;;;;4.37;3.93;;;20.60;99.90;;;;;;4970495;28;20227;-77
2022/06/23 01:34:53;;;;;;;4.17;3.87;;;20.60;99.90;;;;;;4970774;28;20194;-76
2022/06/23 01:37:26;;;;;;;4.83;3.93;;;20.50;99.90;;;;;;4970201;28;20704;-78
2022/06/23 01:40:02;;;;;;;5.87;4.07;;;20.40;99.90;;;;;;4970519;28;20669;-78
2022/06/23 01:42:39;;;;;;;7.33;4.37;;;20.40;99.90;;;;;;4970129;28;20199;-78
2022/06/23 01:45:10;;;;;;;4.40;4.10;;;20.50;99.90;;;;;;4951536;29;20227;-78
2022/06/23 01:47:48;;;;;;;4.93;4.40;;;20.40;99.90;;;;;;4951186;29;20244;-78
2022/06/23 01:50:39;;;;;;;3.90;3.63;;;20.40;99.90;;;;;;4955488;28;20195;-78
2022/06/23 01:53:24;;;;;;;6.10;4.37;;;20.40;99.90;;;;;;4970550;28;20249;-75
2022/06/23 01:56:22;;;;;;;4.50;4.10;;;20.30;99.90;;;;;;4969948;28;20202;-76
2022/06/23 01:58:57;;;;;;;5.77;4.20;;;20.30;99.90;;;;;;4970129;28;20214;-78
2022/06/23 02:01:32;;;;;;;6.80;4.03;;;20.30;99.90;;;;;;4970236;28;20195;-78
2022/06/23 02:04:10;;;;;;;5.13;4.03;;;20.20;99.90;;;;;;4970077;28;20198;-78
2022/06/23 02:06:44;;;;;;;6.17;4.20;;;20.20;99.90;;;;;;4970356;28;20213;-79
2022/06/23 02:09:16;;;;;;;6.07;4.00;;;20.20;99.90;;;;;;4969924;28;20203;-77
2022/06/23 02:11:46;;;;;;;4.63;4.13;;;20.20;99.90;;;;;;4970430;28;20219;-78
2022/06/23 02:14:23;;;;;;;6.00;4.70;;;20.10;99.90;;;;;;4969706;28;20674;-76
2022/06/23 02:16:57;;;;;;;6.73;4.87;;;20.10;99.90;;;;;;4969935;28;20723;-76
2022/06/23 02:19:34;;;;;;;4.73;4.30;;;20.00;99.90;;;;;;4970085;28;20199;-79
2022/06/23 02:22:07;;;;;;;8.90;5.00;;;20.00;99.90;;;;;;4969849;28;20544;-78
2022/06/23 02:24:39;;;;;;;4.87;4.37;;;20.00;99.90;;;;;;4970050;28;20241;-74
2022/06/23 02:27:13;;;;;;;8.57;4.97;;;20.00;99.90;;;;;;4969617;28;20203;-74
2022/06/23 02:29:49;;;;;;;5.30;4.70;;;20.00;99.90;;;;;;4969818;28;20198;-74
2022/06/23 02:32:24;;;;;;;5.00;4.50;;;20.00;99.90;;;;;;4966538;28;20326;-75
2022/06/23 02:34:58;;;;;;;5.30;4.80;;;20.00;99.90;;;;;;4967387;28;20662;-76
2022/06/23 02:37:50;;;;;;;5.80;4.77;;;20.00;99.90;;;;;;4967608;28;20679;-75
2022/06/23 02:40:22;;;;;;;7.13;4.73;;;19.90;99.90;;;;;;4967279;28;20244;-75
2022/06/23 02:42:53;;;;;;;7.97;4.33;;;19.90;99.90;;;;;;4964320;28;20230;-75
2022/06/23 02:45:56;;;;;;;6.03;4.53;;;19.80;99.90;;;;;;4948111;29;20211;-76
2022/06/23 02:48:45;;;;;;;6.13;4.63;;;19.80;99.90;;;;;;4946455;28;20210;-74
2022/06/23 02:51:23;;;;;;;5.23;4.77;;;19.80;99.90;;;;;;4944520;29;20254;-74
2022/06/23 02:54:15;;;;;;;7.47;5.20;;;19.70;99.90;;;;;;4954189;28;20229;-74
2022/06/23 02:57:15;;;;;;;5.30;4.87;;;19.80;99.90;;;;;;4967505;28;20241;-74
2022/06/23 02:59:46;;;;;;;6.33;4.57;;;19.80;99.90;;;;;;4955638;28;20207;-77
2022/06/23 03:02:19;;;;;;;5.43;4.93;;;19.80;99.90;;;;;;4963760;28;20266;-77
2022/06/23 03:04:51;;;;;;;6.23;5.57;;;19.70;99.90;;;;;;4968962;28;20619;-78
2022/06/23 03:07:25;;;;;;;6.47;4.37;;;19.60;99.90;;;;;;4969417;28;20202;-77
2022/06/23 03:10:04;;;;;;;6.43;4.83;;;19.60;99.90;;;;;;4969089;28;20578;-77
2022/06/23 03:12:39;;;;;;;8.33;5.17;;;19.60;99.90;;;;;;4969112;28;20277;-77
2022/06/23 03:15:12;;;;;;;5.10;4.43;;;19.60;99.90;;;;;;4969564;28;20249;-77
2022/06/23 03:17:46;;;;;;;6.87;4.97;;;19.60;99.90;;;;;;4969209;28;20287;-77
2022/06/23 03:20:21;;;;;;;6.40;4.97;;;19.60;99.90;;;;;;4968584;28;20227;-77
2022/06/23 03:22:55;;;;;;;5.33;4.93;;;19.50;99.90;;;;;;4968819;28;20202;-77
2022/06/23 03:25:28;;;;;;;5.20;4.73;;;19.50;99.90;;;;;;4968973;28;20191;-77
2022/06/23 03:28:01;;;;;;;10.43;5.10;;;19.50;99.90;;;;;;4968982;28;20210;-77
2022/06/23 03:30:35;;;;;;;6.47;4.97;;;19.40;99.90;;;;;;4969240;28;20298;-77
2022/06/23 03:33:13;;;;;;;7.70;5.03;;;19.40;99.90;;;;;;4968817;28;20237;-77
2022/06/23 03:35:48;;;;;;;6.13;4.43;;;19.40;99.90;;;;;;4968857;28;20221;-77
2022/06/23 03:38:22;;;;;;;4.83;4.50;;;19.30;99.90;;;;;;4969243;28;20225;-77
2022/06/23 03:43:52;;;;;;;6.93;5.50;;;19.30;99.90;;;;;;4968507;28;20257;-77
2022/06/23 03:46:26;;;;;;;8.40;5.20;;;19.30;99.90;;;;;;4968428;28;20202;-77
2022/06/23 03:48:58;;;;;;;6.13;5.37;;;19.30;99.90;;;;;;4968753;28;20201;-77
2022/06/23 03:51:30;;;;;;;7.43;5.50;;;19.30;99.90;;;;;;4968678;28;20229;-77
2022/06/23 03:54:03;;;;;;;6.27;5.07;;;19.40;99.90;;;;;;4969466;28;20202;-77
2022/06/23 03:56:34;;;;;;;7.20;5.50;;;19.40;99.90;;;;;;4969542;28;20195;-77
2022/06/23 03:59:08;;;;;;;7.90;4.77;;;19.30;99.90;;;;;;4968780;28;20203;-77
2022/06/23 04:01:42;;;;;;;9.17;5.60;;;19.40;99.90;;;;;;4969086;28;20658;-77
2022/06/23 04:04:17;;;;;;;5.87;5.23;;;19.40;99.90;;;;;;4969159;28;20200;-77
2022/06/23 04:06:46;;;;;;;8.43;5.63;;;19.40;99.90;;;;;;4969343;28;20198;-77
2022/06/23 04:09:18;;;;;;;6.23;5.30;;;19.40;99.90;;;;;;4969136;28;20211;-77
2022/06/23 04:12:01;;;;;;;10.77;5.97;;;19.40;99.90;;;;;;4969463;28;20370;-77
2022/06/23 04:14:45;;;;;;;7.43;5.50;;;19.40;99.90;;;;;;4968910;28;20302;-77
2022/06/23 04:17:20;;;;;;;6.43;5.73;;;19.50;99.90;;;;;;4967185;28;20210;-77
2022/06/23 04:19:49;;;;;;;5.73;5.17;;;19.50;99.90;;;;;;4968298;28;20249;-77
2022/06/23 04:22:23;;;;;;;5.47;4.90;;;19.50;99.90;;;;;;4968484;28;20207;-77
2022/06/23 04:24:54;;;;;;;6.50;5.60;;;19.50;99.90;;;;;;4968753;28;20199;-77
2022/06/23 04:27:25;;;;;;;6.20;5.07;;;19.50;99.90;;;;;;4968408;28;20199;-77
2022/06/23 04:29:56;;;;;;;5.73;4.70;;;19.50;99.90;;;;;;4968504;28;20199;-77
2022/06/23 04:32:25;;;;;;;6.67;4.73;;;19.60;99.90;;;;;;4969263;28;20242;-77
2022/06/23 04:34:57;;;;;;;9.33;5.47;;;19.60;99.90;;;;;;4971241;28;20650;-77
2022/06/23 04:37:33;;;;;;;10.53;5.30;;;19.60;99.90;;;;;;4971814;28;20206;-77
2022/06/23 04:40:17;;;;;;;13.70;5.87;;;19.60;99.90;;;;;;4971327;28;20202;-77
2022/06/23 04:42:49;;;;;;;7.80;5.63;;;19.70;99.90;;;;;;4971590;28;20226;-77
2022/06/23 04:45:30;;;;;;;9.27;5.17;;;19.80;99.90;;;;;;4971735;28;20209;-78
2022/06/23 04:48:00;;;;;;;5.77;4.87;;;19.80;99.90;;;;;;4971673;28;20559;-77
2022/06/23 04:50:41;;;;;;;10.60;5.57;;;19.70;99.90;;;;;;4971406;28;20224;-77
2022/06/23 04:53:20;;;;;;;9.30;4.90;;;19.80;99.90;;;;;;4971230;28;20223;-78
2022/06/23 04:58:49;;;;;;;9.47;5.50;;;19.80;99.90;;;;;;4965265;28;20211;-78
2022/06/23 05:01:18;;;;;;;9.10;5.63;;;19.80;99.90;;;;;;4951700;29;20200;-78
2022/06/23 05:03:49;;;;;;;9.53;5.80;;;19.80;99.90;;;;;;4951829;29;20223;-79
2022/06/23 05:06:25;;;;;;;5.73;5.13;;;19.80;99.90;;;;;;4952404;29;20196;-79
2022/06/23 05:08:54;;;;;;;8.00;6.33;;;19.80;99.90;;;;;;4952147;29;20199;-79
2022/06/23 05:11:28;;;;;;;7.93;5.53;;;19.80;99.90;;;;;;4952047;29;20211;-79
2022/06/23 05:13:59;;;;;;;5.90;4.97;;;19.90;99.90;;;;;;4963691;28;20222;-78
2022/06/23 05:16:29;;;;;;;9.87;4.53;;;19.90;99.90;;;;;;4971425;28;20202;-79
2022/06/23 05:19:00;;;;;;;9.13;4.67;;;19.90;99.90;;;;;;4971097;28;20764;-79
2022/06/23 05:21:31;;;;;;;5.77;4.40;;;19.90;99.90;;;;;;4971186;28;20207;-79
2022/06/23 05:24:03;;;;;;;5.80;4.37;;;20.00;99.90;;;;;;4970745;28;20199;-78
2022/06/23 05:26:37;;;;;;;5.97;4.57;;;20.00;99.90;;;;;;4971124;28;20564;-79
2022/06/23 05:29:08;;;;;;;9.60;4.77;;;20.10;99.90;;;;;;4951924;29;20199;-78
2022/06/23 05:31:37;;;;;;;5.70;4.43;;;20.10;99.90;;;;;;4951083;29;20658;-79
2022/06/23 05:34:13;;;;;;;6.87;4.80;;;20.10;99.90;;;;;;4950758;28;20614;-78
2022/06/23 05:36:49;;;;;;;6.73;4.03;;;20.10;99.90;;;;;;4951759;29;20587;-79
2022/06/23 05:39:22;;;;;;;19.40;5.30;;;20.10;99.90;;;;;;4951376;29;20195;-79
2022/06/23 05:41:53;;;;;;;12.20;5.17;;;20.10;99.90;;;;;;4952223;28;20243;-79
2022/06/23 05:44:25;;;;;;;10.13;4.73;;;20.10;99.90;;;;;;4969947;28;20217;-79
2022/06/23 05:46:54;;;;;;;6.10;4.53;;;20.20;99.90;;;;;;4970797;28;20282;-78
2022/06/23 05:49:25;;;;;;;6.07;4.37;;;20.30;99.90;;;;;;4969838;28;20211;-79
2022/06/23 05:51:56;;;;;;;5.33;4.60;;;20.30;99.90;;;;;;4970597;28;20199;-79
2022/06/23 05:54:33;;;;;;;6.80;4.20;;;20.30;99.90;;;;;;4969915;28;20233;-78
2022/06/23 05:57:16;;;;;;;5.27;4.77;;;20.30;99.90;;;;;;4970469;28;20195;-79
2022/06/23 05:59:57;;;;;;;7.33;4.37;;;20.30;99.90;;;;;;4970224;28;20654;-79
2022/06/23 06:02:30;;;;;;;7.57;4.23;;;20.40;99.90;;;;;;4970096;28;20596;-78
2022/06/23 06:04:59;;;;;;;3.80;3.50;;;20.40;99.90;;;;;;4969879;28;20207;-79
2022/06/23 06:07:31;;;;;;;6.43;4.03;;;20.40;99.90;;;;;;4970081;28;20674;-79
2022/06/23 06:10:02;;;;;;;4.63;3.83;;;20.40;99.90;;;;;;4970337;28;20195;-78
2022/06/23 06:12:35;;;;;;;7.97;4.00;;;20.50;99.90;;;;;;4970014;28;20191;-78
2022/06/23 06:15:05;;;;;;;5.20;3.20;;;20.50;99.90;;;;;;4969657;28;20202;-78
2022/06/23 06:17:35;;;;;;;6.60;5.70;;;20.60;99.90;;;;;;4969552;28;20676;-78
2022/06/23 06:20:06;;;;;;;5.97;3.30;;;20.70;99.90;;;;;;4969428;28;20217;-78
2022/06/23 06:22:43;;;;;;;4.87;3.10;;;20.70;99.90;;;;;;4969868;28;20207;-78
2022/06/23 06:25:19;;;;;;;5.50;3.05;;;20.70;99.90;;;;;;4969496;28;20201;-78
2022/06/23 06:27:46;;;;;;;5.07;3.05;;;20.70;99.90;;;;;;4969758;28;20222;-78
2022/06/23 06:30:16;;;;;;;17.13;4.20;;;20.80;99.90;;;;;;4969389;28;20680;-78
2022/06/23 06:32:44;;;;;;;4.07;3.17;;;20.90;99.90;;;;;;4969284;28;20610;-78
2022/06/23 06:35:20;;;;;;;5.63;3.50;;;20.90;99.80;;;;;;4969143;28;20253;-78
2022/06/23 06:37:52;;;;;;;11.35;3.40;;;20.90;99.80;;;;;;4969572;28;20201;-78
2022/06/23 06:40:22;;;;;;;6.25;3.20;;;21.00;99.80;;;;;;4967865;28;20245;-78
2022/06/23 06:42:53;;;;;;;4.18;2.60;;;21.00;99.70;;;;;;4966085;28;20220;-78
2022/06/23 06:45:23;;;;;;;3.37;3.07;;;21.10;99.70;;;;;;4950142;28;20497;-77
2022/06/23 06:47:50;;;;;;;3.65;3.10;;;21.10;99.70;;;;;;4968225;28;20203;-77
2022/06/23 06:50:35;;;;;;;4.43;2.70;;;21.20;99.50;;;;;;4969011;28;20215;-77
2022/06/23 06:53:06;;;;;;;5.97;3.00;;;21.20;99.50;;;;;;4969274;28;20226;-77
2022/06/23 06:55:39;;;;;;;5.30;3.10;;;21.30;99.40;;;;;;4968419;28;20215;-78
2022/06/23 06:58:15;;;;;;;5.68;3.05;;;21.30;99.20;;;;;;4969596;28;20199;-78
2022/06/23 07:00:46;;;;;;;3.35;2.85;;;21.30;99.30;;;;;;4969547;28;20202;-77
2022/06/23 07:03:17;;;;;;;4.05;3.00;;;21.40;99.40;;;;;;4969262;28;20202;-77
2022/06/23 07:05:49;;;;;;;4.72;3.40;;;21.40;99.40;;;;;;4968765;28;20202;-77
2022/06/23 07:08:21;;;;;;;5.45;2.70;;;21.50;99.30;;;;;;4969425;28;20659;-78
2022/06/23 07:10:53;;;;;;;6.78;2.60;;;21.40;99.40;;;;;;4969652;28;20199;-77
2022/06/23 07:13:27;;;;;;;3.00;2.70;;;21.50;99.50;;;;;;4969417;28;20223;-77
2022/06/23 07:15:59;;;;;;;5.20;3.10;;;21.50;99.60;;;;;;4969574;28;20201;-77
2022/06/23 07:18:31;;;;;;;3.40;2.90;;;21.50;99.70;;;;;;4969472;28;20634;-78
2022/06/23 07:21:07;;;;;;;9.13;3.50;;;21.60;99.70;;;;;;4969063;28;20195;-77
2022/06/23 07:23:40;;;;;;;5.95;3.15;;;21.60;99.30;;;;;;4969556;28;20211;-78
2022/06/23 07:26:30;;;;;;;5.32;3.55;;;21.70;99.50;;;;;;4969269;28;20205;-78
2022/06/23 07:29:03;;;;;;;6.38;3.10;;;21.70;99.50;;;;;;4969550;28;20203;-77
2022/06/23 07:31:35;;;;;;;6.13;3.33;;;21.80;99.60;;;;;;4969782;28;20230;-78
2022/06/23 07:34:06;;;;;;;5.70;3.38;;;21.80;99.50;;;;;;4968790;28;20239;-77
2022/06/23 07:36:38;;;;;;;6.47;3.65;;;21.80;99.40;;;;;;4951460;28;20211;-77
2022/06/23 07:39:09;;;;;;;4.50;3.53;;;21.90;99.50;;;;;;4949764;29;20203;-77
2022/06/23 07:41:41;;;;;;;5.07;3.67;;;21.90;99.30;;;;;;4949578;29;20239;-78
2022/06/23 07:44:14;;;;;;;3.92;2.90;;;21.90;99.00;;;;;;4968193;28;20203;-77
2022/06/23 07:46:41;;;;;;;3.05;2.70;;;21.90;99.30;;;;;;4969169;28;20205;-77
2022/06/23 07:49:08;;;;;;;5.40;2.95;;;22.00;99.60;;;;;;4968834;28;20210;-77
2022/06/23 07:51:36;;;;;;;6.20;3.05;;;22.10;99.60;;;;;;4968928;28;20576;-77
2022/06/23 07:54:05;;;;;;;2.85;2.60;;;22.10;99.40;;;;;;4969031;28;20234;-77
2022/06/23 07:56:34;;;;;;;7.38;3.03;;;22.20;99.40;;;;;;4969148;28;20209;-78
2022/06/23 07:59:09;;;;;;;9.63;3.50;;;22.20;99.20;;;;;;4968951;28;20641;-78
2022/06/23 08:01:41;;;;;;;21.67;3.83;;;22.20;98.80;;;;;;4969163;28;20716;-78
2022/06/23 08:04:16;;;;;;;8.50;3.17;;;22.30;99.20;;;;;;4968735;28;20206;-78
2022/06/23 08:06:43;;;;;;;6.10;3.05;;;22.30;99.20;;;;;;4969470;28;20588;-78
2022/06/23 08:09:17;;;;;;;7.13;2.92;;;22.30;99.10;;;;;;4972704;28;20238;-78
2022/06/23 08:14:34;;;;;;;5.57;3.38;;;22.30;98.80;;;;;;4956378;28;20241;-78
2022/06/23 08:17:01;;;;;;;13.35;3.60;;;22.30;98.90;;;;;;4952724;29;20655;-78
2022/06/23 08:19:34;;;;;;;8.07;3.45;;;22.30;99.10;;;;;;4952505;29;20219;-78
2022/06/23 08:22:08;;;;;;;21.30;3.95;;;22.40;98.60;;;;;;4953225;29;20196;-78
2022/06/23 08:24:38;;;;;;;5.47;2.75;;;22.40;98.90;;;;;;4970251;28;20206;-78
2022/06/23 08:27:08;;;;;;;5.95;3.13;;;22.50;98.30;;;;;;4971650;28;20195;-79
2022/06/23 08:29:41;;;;;;;9.43;3.92;;;22.50;98.20;;;;;;4972006;28;20195;-78
2022/06/23 08:32:08;;;;;;;54.55;8.07;;;22.60;98.70;;;;;;4971519;28;20235;-78
2022/06/23 08:34:38;;;;;;;24.20;5.53;;;22.70;98.80;;;;;;4971296;28;20249;-78
2022/06/23 08:37:13;;;;;;;12.50;3.95;;;22.70;98.90;;;;;;4971731;28;20221;-78
2022/06/23 08:39:46;;;;;;;10.60;3.65;;;22.70;98.60;;;;;;4971474;28;20202;-78
2022/06/23 08:42:21;;;;;;;6.07;3.70;;;22.70;98.30;;;;;;4971579;28;20198;-78
2022/06/23 08:44:59;;;;;;;13.20;4.15;;;22.70;98.40;;;;;;4971329;28;20298;-78
2022/06/23 08:47:37;;;;;;;16.23;3.85;;;22.80;98.50;;;;;;4971817;28;20206;-78
2022/06/23 08:50:12;;;;;;;8.48;3.13;;;22.80;98.60;;;;;;4970997;28;20242;-79
2022/06/23 08:52:46;;;;;;;10.07;3.10;;;22.90;98.40;;;;;;4971571;28;20203;-78
2022/06/23 08:55:20;;;;;;;6.95;2.75;;;22.90;98.20;;;;;;4971201;28;20316;-78
2022/06/23 08:57:51;;;;;;;4.50;2.55;;;23.00;97.70;;;;;;4971784;28;20206;-79
2022/06/23 09:00:22;;;;;;;6.55;3.40;;;23.10;96.60;;;;;;4971299;28;20195;-79
2022/06/23 09:02:55;;;;;;;8.65;2.83;;;23.20;96.90;;;;;;4971729;28;20225;-78
2022/06/23 09:05:32;;;;;;;11.23;3.00;;;23.20;97.00;;;;;;4970636;28;20206;-78
2022/06/23 09:08:05;;;;;;;9.52;2.63;;;23.30;97.00;;;;;;4971378;28;20574;-78
2022/06/23 09:10:42;;;;;;;5.90;2.60;;;23.30;96.90;;;;;;4971525;28;20199;-79
2022/06/23 09:13:23;;;;;;;4.82;2.22;;;23.40;96.90;;;;;;4970973;28;20222;-78
2022/06/23 09:16:17;;;;;;;6.15;2.50;;;23.60;95.80;;;;;;4971551;28;20213;-78
2022/06/23 09:19:15;;;;;;;5.05;2.60;;;23.60;95.50;;;;;;4970569;28;20207;-79
2022/06/23 09:21:57;;;;;;;5.60;2.70;;;23.70;95.80;;;;;;4971258;28;20203;-78
2022/06/23 09:24:41;;;;;;;7.75;3.05;;;23.70;95.70;;;;;;4970914;28;20207;-79
2022/06/23 09:27:16;;;;;;;4.38;2.45;;;23.80;96.20;;;;;;4970336;28;22988;-78
2022/06/23 09:29:53;;;;;;;4.65;2.75;;;23.80;96.00;;;;;;4971212;28;20668;-78
2022/06/23 09:32:32;;;;;;;4.38;2.53;;;23.90;95.70;;;;;;4971067;28;20226;-79
2022/06/23 09:35:25;;;;;;;6.70;2.67;;;24.00;94.90;;;;;;4970525;28;20230;-79
2022/06/23 09:38:10;;;;;;;2.88;2.38;;;24.00;94.40;;;;;;4970940;28;20211;-78
2022/06/23 09:40:48;;;;;;;3.80;2.30;;;24.10;93.90;;;;;;4970224;28;20245;-79
2022/06/23 09:43:50;;;;;;;3.55;3.22;;;24.10;94.80;;;;;;4970403;28;20681;-78
2022/06/23 09:46:47;;;;;;;5.53;2.38;;;24.20;94.20;;;;;;4970932;28;20192;-78
2022/06/23 09:49:44;;;;;;;4.18;2.08;;;24.30;93.80;;;;;;4968427;28;20291;-78
2022/06/23 09:52:40;;;;;;;3.35;2.30;;;24.40;94.20;;;;;;4910536;29;20216;-78
2022/06/23 09:55:25;;;;;;;3.90;2.50;;;24.50;94.20;;;;;;4964159;28;20261;-79
2022/06/23 09:58:24;;;;;;;5.38;2.40;;;24.70;93.70;;;;;;4970512;28;20195;-79
2022/06/23 10:01:10;;;;;;;3.50;2.28;;;24.80;93.20;;;;;;4970926;28;20516;-79
2022/06/23 10:03:49;;;;;;;6.22;1.95;;;24.90;93.40;;;;;;4970282;28;20202;-80
2022/06/23 10:06:39;;;;;;;5.80;2.15;;;25.00;93.40;;;;;;4969669;28;20583;-79
2022/06/23 10:09:14;;;;;;;2.30;2.10;;;25.00;92.80;;;;;;4969959;28;20211;-79
2022/06/23 10:11:54;;;;;;;4.30;2.28;;;25.00;92.60;;;;;;4970281;28;20206;-79
2022/06/23 10:14:33;;;;;;;5.03;2.40;;;25.00;91.90;;;;;;4954664;28;20238;-79
2022/06/23 10:17:19;;;;;;;4.10;1.75;;;25.10;91.70;;;;;;4950683;29;20646;-79
2022/06/23 10:20:16;;;;;;;9.20;2.38;;;25.30;91.50;;;;;;4950668;29;20208;-79
2022/06/23 10:23:09;;;;;;;2.33;2.03;;;25.40;91.40;;;;;;4953671;28;20196;-79
2022/06/23 10:25:56;;;;;;;2.35;2.13;;;25.40;90.30;;;;;;4950674;29;20211;-79
2022/06/23 10:28:44;;;;;;;6.38;2.08;;;25.50;90.00;;;;;;4965018;28;20210;-79
2022/06/23 10:31:23;;;;;;;3.35;2.08;;;25.60;89.70;;;;;;4969611;28;20295;-79
2022/06/23 10:34:12;;;;;;;2.88;2.00;;;25.60;88.50;;;;;;4969758;28;20242;-78
2022/06/23 10:36:51;;;;;;;3.58;2.03;;;25.70;88.50;;;;;;4969876;28;20206;-79
2022/06/23 10:39:48;;;;;;;4.55;2.30;;;25.80;88.00;;;;;;4970042;28;20225;-79
2022/06/23 10:42:41;;;;;;;4.45;2.42;;;26.10;87.20;;;;;;4966405;28;20285;-78
2022/06/23 10:45:25;;;;;;;2.95;2.20;;;26.20;87.30;;;;;;4949832;29;20215;-79
2022/06/23 10:48:18;;;;;;;2.42;2.10;;;26.30;86.80;;;;;;4950214;29;20203;-79
2022/06/23 10:50:58;;;;;;;2.20;2.00;;;26.40;84.30;;;;;;4919712;28;20698;-79
2022/06/23 10:53:47;;;;;;;2.30;2.10;;;26.50;84.70;;;;;;4949620;29;20235;-79
2022/06/23 10:56:37;;;;;;;3.67;2.03;;;26.70;85.00;;;;;;4950039;29;20211;-79
2022/06/23 10:59:38;;;;;;;2.55;2.17;;;26.80;84.40;;;;;;4949918;29;20554;-79
2022/06/23 11:02:41;;;;;;;2.42;1.77;;;27.10;84.10;;;;;;4890441;29;20635;-79
2022/06/23 11:05:48;;;;;;;6.68;2.10;;;27.20;81.80;;;;;;4943964;29;20207;-80
2022/06/23 11:08:33;;;;;;;6.45;2.08;;;27.40;82.30;;;;;;4902311;28;20224;-80
2022/06/23 11:11:18;;;;;;;3.20;1.77;;;27.60;80.70;;;;;;4950062;29;20207;-79
2022/06/23 11:13:58;;;;;;;5.88;2.20;;;27.80;81.90;;;;;;4960736;28;20215;-79
2022/06/23 11:16:35;;;;;;;7.53;2.10;;;27.90;81.30;;;;;;4969351;28;20665;-80
2022/06/23 11:19:21;;;;;;;2.25;1.88;;;28.00;82.00;;;;;;4969392;28;20205;-79
2022/06/23 11:22:01;;;;;;;5.15;2.08;;;28.10;80.50;;;;;;4950340;29;20195;-80
2022/06/23 11:24:36;;;;;;;5.40;1.92;;;28.20;80.00;;;;;;4966207;28;20658;-80
2022/06/23 11:27:13;;;;;;;3.38;2.28;;;28.40;80.00;;;;;;4968998;28;20198;-80
2022/06/23 11:30:09;;;;;;;2.40;1.98;;;28.50;80.70;;;;;;4968968;28;20250;-79
2022/06/23 11:32:42;;;;;;;2.63;1.98;;;28.50;79.90;;;;;;4967985;28;20729;-80
2022/06/23 11:35:41;;;;;;;5.15;2.08;;;28.60;75.40;;;;;;4968651;28;20711;-80
2022/06/23 11:38:46;;;;;;;1.98;1.83;;;28.70;76.20;;;;;;4969448;28;20202;-79
2022/06/23 11:41:30;;;;;;;1.50;1.40;;;28.80;75.80;;;;;;4968772;28;20238;-80
2022/06/23 11:44:13;;;;;;;1.80;1.70;;;28.90;76.10;;;;;;4973104;28;20673;-79
2022/06/23 11:46:49;;;;;;;2.38;1.73;;;29.00;76.10;;;;;;4973544;28;20199;-80
2022/06/23 11:49:31;;;;;;;2.30;1.77;;;29.20;73.40;;;;;;4973069;28;20191;-80
2022/06/23 11:52:19;;;;;;;3.35;1.88;;;29.30;73.60;;;;;;4973428;28;20205;-79
2022/06/23 11:55:09;;;;;;;2.38;2.08;;;29.50;76.10;;;;;;4973112;28;20616;-79
2022/06/23 11:57:49;;;;;;;2.22;1.98;;;29.60;75.10;;;;;;4973489;28;20198;-80
2022/06/23 12:00:19;;;;;;;2.25;2.00;;;29.70;73.60;;;;;;4973605;28;20194;-80
2022/06/23 12:03:01;;;;;;;4.93;1.90;;;29.80;73.00;;;;;;4972907;28;20225;-80
2022/06/23 12:05:37;;;;;;;3.28;1.85;;;29.90;72.60;;;;;;4972283;28;20203;-80
2022/06/23 12:08:27;;;;;;;2.63;1.90;;;30.00;73.30;;;;;;4972955;28;20571;-80
2022/06/23 12:10:54;;;;;;;18.90;2.45;;;30.10;73.10;;;;;;4973177;28;20201;-80
2022/06/23 12:13:24;;;;;;;5.90;2.28;;;30.30;73.30;;;;;;4965308;28;20225;-80
2022/06/23 12:15:54;;;;;;;4.32;2.55;;;30.40;73.90;;;;;;4954457;28;20279;-80
2022/06/23 12:18:28;;;;;;;2.05;1.88;;;30.60;74.50;;;;;;4953970;29;20257;-80
2022/06/23 12:21:00;;;;;;;1.80;1.70;;;30.80;73.90;;;;;;4952866;29;20646;-80
2022/06/23 12:23:32;;;;;;;3.30;2.00;;;30.90;73.60;;;;;;4961433;28;20333;-80
2022/06/23 12:26:12;;;;;;;3.42;1.88;;;31.10;72.60;;;;;;4972750;28;20210;-80
2022/06/23 12:28:46;;;;;;;3.97;1.92;;;31.20;72.70;;;;;;4972016;28;20310;-80
2022/06/23 12:31:23;;;;;;;6.88;2.53;;;31.20;70.70;;;;;;4972337;28;20202;-80
2022/06/23 12:34:00;;;;;;;2.60;2.10;;;31.40;70.60;;;;;;4971974;28;20883;-80
2022/06/23 12:36:35;;;;;;;2.97;1.75;;;31.60;69.20;;;;;;4972176;28;20222;-80
2022/06/23 12:39:07;;;;;;;3.22;2.13;;;31.60;68.70;;;;;;4972164;28;20198;-80
2022/06/23 12:41:41;;;;;;;3.17;1.70;;;31.60;70.00;;;;;;4971515;28;20278;-80
2022/06/23 12:44:18;;;;;;;3.10;1.95;;;31.60;69.90;;;;;;4971413;28;20697;-81
2022/06/23 12:46:54;;;;;;;3.45;1.98;;;31.70;69.60;;;;;;4972417;28;20335;-80
2022/06/23 12:49:41;;;;;;;1.88;1.77;;;31.70;68.80;;;;;;4971940;28;20194;-80
2022/06/23 12:52:25;;;;;;;2.08;1.90;;;31.90;68.90;;;;;;4972069;28;20203;-81
2022/06/23 12:55:12;;;;;;;3.95;1.80;;;32.00;67.70;;;;;;4971695;28;20242;-80
2022/06/23 12:58:04;;;;;;;1.75;1.60;;;32.00;67.80;;;;;;4971977;28;20282;-80
2022/06/23 13:00:55;;;;;;;3.45;1.70;;;32.10;67.60;;;;;;4971868;28;20721;-80
2022/06/23 13:03:29;;;;;;;2.00;1.70;;;32.20;68.00;;;;;;4971452;28;20609;-80
2022/06/23 13:06:09;;;;;;;2.70;1.77;;;32.30;68.30;;;;;;4971125;28;20199;-80
2022/06/23 13:08:43;;;;;;;3.65;1.95;;;32.30;68.50;;;;;;4971625;28;20229;-79
2022/06/23 13:11:17;;;;;;;2.72;2.28;;;32.30;67.30;;;;;;4971011;28;20681;-80
2022/06/23 13:13:50;;;;;;;1.90;1.80;;;32.30;67.30;;;;;;4970914;28;20224;-80
2022/06/23 13:16:21;;;;;;;2.35;2.08;;;32.50;67.70;;;;;;4971013;28;20227;-80
2022/06/23 13:18:53;;;;;;;2.20;2.10;;;32.50;67.60;;;;;;4971275;28;20202;-80
2022/06/23 13:21:26;;;;;;;2.20;2.00;;;32.80;65.90;;;;;;4971610;28;20411;-80
2022/06/23 13:23:57;;;;;;;2.92;1.80;;;32.80;65.50;;;;;;4972552;28;20203;-80
2022/06/23 13:26:26;;;;;;;4.13;1.90;;;33.00;65.80;;;;;;4971215;28;20283;-85
2022/06/23 13:28:59;;;;;;;6.53;1.85;;;33.00;66.00;;;;;;4971130;28;20214;-80
2022/06/23 13:31:30;;;;;;;3.53;1.90;;;32.90;65.00;;;;;;4971278;28;20199;-80
2022/06/23 13:34:01;;;;;;;6.65;1.95;;;32.80;65.30;;;;;;4971265;28;20198;-80
2022/06/23 13:36:39;;;;;;;3.60;1.80;;;33.00;63.10;;;;;;4971228;28;20254;-80
2022/06/23 13:39:17;;;;;;;19.55;3.00;;;33.00;63.80;;;;;;4971640;28;20199;-80
2022/06/23 13:41:50;;;;;;;5.10;1.60;;;33.10;64.60;;;;;;4971047;28;20243;-80